Aérodrome :
LOGIN :

S'inscrire | Disclaimer

   EN    FR    IT 

 










Légende :    VFR   VFR Marginal   IFR   IFR Intensif   IFR Très Intensif
Visi : 
Plafond : 
>= 8 km
>= 3000ft
5 à 8 km
1000 à 3000 ft
1500m à 5 km
500 à 1000 ft
800 à 1500m
200 à 500 ft
< 800m
< 200 ft
Symboles :   Orages  Brouillard  Fortes neiges  Fortes précipitations  Vent > 20 kt
SIGMETs :   Divers  Orages  Givrage  Turbulence  Onde Orograph.  Cendres Volcan.







- Altitude de l'aérodrome : 325 ft
- Code IATA : BES
- Voir les cartes d'approche


LFRB - Brest

DERNIER METAR :
  • 160730Z AUTO 23009KT 8000 BKN006 OVC011 17/17 Q1016 BECMG 4000 RADZ

METARs EXPIRÉS :
  • 160700Z AUTO 23010KT 9999 OVC013 17/17 Q1016 BECMG 4000 RADZ OVC005
  • 160630Z AUTO 22010KT 9999 BKN007 OVC015 17/17 Q1016 BECMG 4000 RADZ
  • 160600Z AUTO 22010KT 9999 BKN004 OVC008 17/17 Q1016 BECMG 4000 RADZ OVC005
  • 160530Z AUTO 21007KT 9999 FEW004 OVC018 17/17 Q1016 BECMG 4000 RADZ OVC005
  • 160500Z AUTO 22009KT 9999 SCT005 OVC019 16/16 Q1017 BECMG 3000 RADZ OVC005

TAF TAF LFRB
Valide du 16 à 06h jusqu'au 17 à 12h UTC


160500Z 1606/1712 23010KT 9999 OVC005
BECMG 1606/1608 4000 RADZ
BECMG 1614/1616 32012KT 9999 NSW SCT016
ATIS : +33 2 98 32 02 71
Pas de NOTAMs connus pour ce terrain.



MET'MAP, la Météo Aéronautique d'un coup d'oeil ! - Copyright ORBIFLY Décembre 2007 - Disclaimer

ORBIFLY MET'MAP TEAM :

Programmation & Développement : Alexandra Zaïnal
Conception & Développement : Baudouin d'Aumeries
Co-Programmation & Développement : Marc-Olivier Méhu
Soutien technique & logistique : Manuel Goepfert

Contact : metmap@orbifly.com




SOURCES & CREDITS :

   NOAA